createdAt,value
2023-03-16T00:04:31.520Z,88.21
2023-03-16T00:09:33.693Z,88.06
2023-03-16T00:14:35.688Z,88.51
2023-03-16T00:19:37.173Z,87.77
2023-03-16T00:24:38.795Z,87.90
2023-03-16T00:29:55.613Z,87.99
2023-03-16T00:34:57.851Z,87.83
2023-03-16T00:39:59.808Z,87.39
2023-03-16T00:45:01.614Z,87.14
2023-03-16T00:50:03.333Z,87.21
2023-03-16T00:55:05.165Z,87.10
2023-03-16T01:00:12.868Z,87.08
2023-03-16T01:05:15.215Z,86.74
2023-03-16T01:10:17.470Z,86.46
2023-03-16T01:15:19.161Z,86.60
2023-03-16T01:20:20.864Z,86.09
2023-03-16T01:25:22.452Z,85.76
2023-03-16T01:30:24.139Z,85.30
2023-03-16T01:35:25.815Z,84.79
2023-03-16T01:40:27.811Z,84.42
2023-03-16T01:45:57.599Z,83.95
2023-03-16T01:51:00.189Z,83.45
2023-03-16T01:56:05.926Z,83.39
2023-03-16T02:01:08.137Z,83.12
2023-03-16T02:06:19.001Z,83.04
2023-03-16T02:11:26.366Z,82.60
2023-03-16T02:16:35.253Z,82.41
2023-03-16T02:22:06.306Z,81.90
2023-03-16T02:27:12.831Z,81.83
2023-03-16T02:32:15.261Z,81.78
2023-03-16T02:37:16.808Z,81.70
2023-03-16T02:42:22.835Z,81.83
2023-03-16T02:47:44.645Z,81.96
2023-03-16T02:52:48.445Z,81.70
2023-03-16T02:57:52.200Z,81.25
2023-03-16T03:02:54.396Z,81.02
2023-03-16T03:07:56.078Z,81.37
2023-03-16T03:12:58.794Z,81.37
2023-03-16T03:18:00.818Z,81.01
2023-03-16T03:23:05.472Z,81.07
2023-03-16T03:28:07.033Z,80.76
2023-03-16T03:33:08.980Z,81.19
2023-03-16T03:38:11.441Z,81.10
2023-03-16T03:43:13.202Z,80.85
2023-03-16T03:48:17.590Z,80.74
2023-03-16T03:53:20.335Z,80.93
2023-03-16T03:58:50.069Z,80.67
2023-03-16T04:04:00.870Z,80.80
2023-03-16T04:09:03.040Z,80.35
2023-03-16T04:14:05.815Z,80.35
2023-03-16T04:19:07.930Z,80.38
2023-03-16T04:24:10.042Z,80.35
2023-03-16T04:29:14.302Z,79.94
2023-03-16T04:34:16.039Z,80.02
2023-03-16T04:39:18.717Z,79.79
2023-03-16T04:44:20.562Z,79.38
2023-03-16T04:49:24.780Z,79.20
2023-03-16T04:54:26.351Z,79.20
2023-03-16T04:59:27.923Z,79.16
2023-03-16T05:04:37.837Z,78.93
2023-03-16T05:09:40.234Z,78.66
2023-03-16T05:14:41.964Z,78.68
2023-03-16T05:19:58.424Z,77.91
2023-03-16T05:25:03.290Z,77.88
2023-03-16T05:30:05.522Z,77.82
2023-03-16T05:35:13.225Z,77.69
2023-03-16T05:40:18.721Z,77.32
2023-03-16T05:45:28.585Z,77.15
2023-03-16T05:50:52.498Z,77.42
2023-03-16T05:56:01.150Z,77.29
2023-03-16T06:01:04.863Z,76.99
2023-03-16T06:06:08.770Z,77.09
2023-03-16T06:11:21.965Z,76.77
2023-03-16T06:16:24.181Z,76.33
2023-03-16T06:21:25.956Z,75.72
2023-03-16T06:26:30.003Z,75.85
2023-03-16T06:31:34.016Z,75.51
2023-03-16T06:36:39.793Z,75.09
2023-03-16T06:41:45.345Z,74.93
2023-03-16T06:46:49.681Z,74.79
2023-03-16T06:51:51.399Z,74.21
2023-03-16T06:56:53.888Z,74.28
2023-03-16T07:01:56.632Z,73.93
2023-03-16T07:06:58.191Z,73.59
2023-03-16T07:11:59.857Z,73.37
2023-03-16T07:17:01.852Z,73.09
2023-03-16T07:22:04.320Z,72.44
2023-03-16T07:27:12.375Z,72.28
2023-03-16T07:32:14.800Z,71.47
2023-03-16T07:37:18.398Z,71.65
2023-03-16T07:42:23.769Z,70.96
2023-03-16T07:47:38.619Z,70.73
2023-03-16T07:52:57.713Z,70.16
2023-03-16T07:57:59.377Z,70.13
2023-03-16T08:03:06.968Z,69.91
2023-03-16T08:08:09.584Z,69.37
2023-03-16T08:13:12.498Z,69.29
2023-03-16T08:18:17.064Z,69.15
2023-03-16T08:23:19.681Z,68.75
2023-03-16T08:28:25.809Z,68.53
2023-03-16T08:33:29.192Z,67.88
2023-03-16T08:38:30.926Z,68.00
2023-03-16T08:43:37.541Z,67.71
2023-03-16T08:48:46.906Z,67.57
2023-03-16T08:53:49.841Z,67.57
2023-03-16T08:58:52.201Z,67.44
2023-03-16T09:03:54.925Z,67.10
2023-03-16T09:08:57.528Z,66.77
2023-03-16T09:14:00.361Z,66.38
2023-03-16T09:19:05.919Z,66.08
2023-03-16T09:24:09.075Z,65.85
2023-03-16T09:29:10.685Z,65.57
2023-03-16T09:34:12.787Z,65.21
2023-03-16T09:39:15.408Z,64.94
2023-03-16T09:44:33.843Z,64.65
2023-03-16T09:49:40.709Z,64.42
2023-03-16T09:54:50.940Z,63.97
2023-03-16T09:59:53.165Z,63.50
2023-03-16T10:05:15.468Z,63.58
2023-03-16T10:10:49.338Z,62.94
2023-03-16T10:15:53.724Z,62.61
2023-03-16T10:20:58.692Z,62.12
2023-03-16T10:26:05.251Z,61.67
2023-03-16T10:31:07.046Z,61.87
2023-03-16T10:36:15.830Z,61.27
2023-03-16T10:41:21.326Z,61.36
2023-03-16T10:46:27.975Z,60.68
2023-03-16T10:51:33.292Z,60.33
2023-03-16T10:56:36.078Z,59.83
2023-03-16T11:01:37.679Z,60.22
2023-03-16T11:06:57.181Z,59.37
2023-03-16T11:12:00.242Z,58.97
2023-03-16T11:17:12.868Z,58.80
2023-03-16T11:22:17.779Z,58.66
2023-03-16T11:27:37.720Z,57.93
2023-03-16T11:32:42.276Z,58.16
2023-03-16T11:38:09.416Z,58.32
2023-03-16T11:43:32.829Z,58.16
2023-03-16T11:48:42.718Z,58.32
2023-03-16T11:53:47.908Z,58.44
2023-03-16T11:58:56.172Z,58.43
2023-03-16T12:04:12.969Z,58.48
2023-03-16T12:09:47.543Z,58.99
2023-03-16T12:15:18.861Z,58.40
2023-03-16T12:20:29.347Z,58.28
2023-03-16T12:25:38.095Z,57.80
2023-03-16T12:30:53.350Z,57.84
2023-03-16T12:36:19.279Z,58.02
2023-03-16T12:41:44.981Z,58.38
2023-03-16T12:47:03.623Z,58.60
2023-03-16T12:52:14.501Z,59.35
2023-03-16T12:57:17.258Z,59.06
2023-03-16T13:02:25.166Z,59.23
2023-03-16T13:07:31.013Z,59.13
2023-03-16T13:12:37.162Z,59.40
2023-03-16T13:17:39.325Z,60.01
2023-03-16T13:22:50.010Z,61.06
2023-03-16T13:27:58.200Z,62.28
2023-03-16T13:33:06.575Z,63.63
2023-03-16T13:38:16.630Z,64.76
2023-03-16T13:43:30.573Z,65.86
2023-03-16T13:48:39.071Z,66.22
2023-03-16T13:53:51.342Z,66.45
2023-03-16T14:10:26.917Z,64.91
2023-03-16T14:21:24.833Z,64.17
2023-03-16T14:27:24.671Z,63.28
2023-03-16T14:38:45.367Z,61.70
2023-03-16T14:44:23.175Z,61.64
2023-03-16T14:49:51.663Z,61.51
2023-03-16T14:55:45.415Z,60.94
2023-03-16T15:01:47.939Z,60.66
2023-03-16T15:14:19.330Z,59.87
2023-03-16T15:25:05.263Z,59.15
2023-03-16T15:30:46.013Z,59.25
2023-03-16T15:37:28.119Z,59.27
2023-03-16T15:43:08.827Z,58.80
2023-03-16T15:54:56.586Z,58.77
2023-03-16T16:05:35.484Z,57.96
2023-03-16T16:11:22.853Z,57.76
2023-03-16T16:16:47.989Z,57.53
2023-03-16T16:21:54.252Z,57.08
2023-03-16T16:27:02.057Z,57.83
2023-03-16T16:32:09.475Z,58.16
2023-03-16T16:37:11.328Z,58.48
2023-03-16T16:42:17.675Z,58.75
2023-03-16T16:47:23.404Z,59.10
2023-03-16T16:52:28.975Z,59.24
2023-03-16T16:57:31.754Z,59.25
2023-03-16T17:02:44.559Z,59.36
2023-03-16T17:07:46.896Z,59.47
2023-03-16T17:12:50.754Z,59.62
2023-03-16T17:18:13.997Z,59.88
2023-03-16T17:23:34.514Z,59.73
2023-03-16T17:28:39.647Z,60.07
2023-03-16T17:33:41.329Z,60.23
2023-03-16T17:38:43.831Z,60.21
2023-03-16T17:43:49.140Z,60.02
2023-03-16T17:48:53.001Z,59.85
2023-03-16T17:53:55.684Z,59.50
2023-03-16T17:58:57.585Z,59.44
2023-03-16T18:04:00.644Z,59.15
2023-03-16T18:09:02.362Z,59.10
2023-03-16T18:14:08.643Z,58.99
2023-03-16T18:19:24.453Z,58.73
2023-03-16T18:24:28.187Z,58.66
2023-03-16T18:29:30.367Z,58.23
2023-03-16T18:34:40.736Z,58.22
2023-03-16T18:39:42.805Z,58.15
2023-03-16T18:44:44.610Z,58.08
2023-03-16T18:49:49.428Z,57.85
2023-03-16T18:54:51.844Z,57.95
2023-03-16T18:59:54.420Z,57.93
2023-03-16T19:04:58.908Z,58.05
2023-03-16T19:10:18.587Z,58.08
2023-03-16T19:15:29.070Z,58.36
2023-03-16T19:20:32.929Z,58.51
2023-03-16T19:25:38.565Z,58.58
2023-03-16T19:30:40.516Z,58.65
2023-03-16T19:35:51.576Z,58.82
2023-03-16T19:40:59.956Z,58.74
2023-03-16T19:46:01.775Z,58.90
2023-03-16T19:51:04.360Z,59.10
2023-03-16T19:56:10.142Z,59.10
2023-03-16T20:01:21.597Z,59.50
2023-03-16T20:06:24.306Z,59.68
2023-03-16T20:11:31.556Z,59.94
2023-03-16T20:16:35.888Z,60.25
2023-03-16T20:21:37.640Z,60.25
2023-03-16T20:26:39.375Z,60.34
2023-03-16T20:31:41.760Z,60.61
2023-03-16T20:36:43.454Z,60.81
2023-03-16T20:41:45.570Z,61.05
2023-03-16T20:46:47.648Z,61.05
2023-03-16T20:51:51.380Z,61.36
2023-03-16T20:56:57.981Z,61.72
2023-03-16T21:02:01.044Z,61.97
2023-03-16T21:07:06.280Z,62.25
2023-03-16T21:12:22.407Z,62.47
2023-03-16T21:17:30.782Z,62.87
2023-03-16T21:22:34.875Z,63.36
2023-03-16T21:27:37.517Z,63.66
2023-03-16T21:32:39.215Z,64.00
2023-03-16T21:37:41.044Z,64.46
2023-03-16T21:42:42.721Z,64.66
2023-03-16T21:47:45.769Z,65.47
2023-03-16T21:52:48.508Z,65.96
2023-03-16T21:57:50.818Z,66.24
2023-03-16T22:02:54.598Z,66.71
2023-03-16T22:07:58.077Z,67.05
2023-03-16T22:13:00.130Z,67.48
2023-03-16T22:18:08.475Z,67.80
2023-03-16T22:23:27.594Z,68.05
2023-03-16T22:28:32.858Z,68.53
2023-03-16T22:33:37.684Z,68.77
2023-03-16T22:38:40.112Z,69.28
2023-03-16T22:43:44.574Z,69.63
2023-03-16T22:48:46.607Z,69.92
2023-03-16T22:53:52.822Z,70.29
2023-03-16T22:59:00.825Z,70.82
2023-03-16T23:04:02.556Z,70.79
2023-03-16T23:09:04.845Z,71.16
2023-03-16T23:14:14.131Z,71.28
2023-03-16T23:19:25.046Z,71.48
2023-03-16T23:24:26.804Z,71.75
2023-03-16T23:29:28.814Z,71.98
2023-03-16T23:34:30.465Z,72.18
2023-03-16T23:39:32.419Z,72.34
2023-03-16T23:44:34.139Z,72.61
2023-03-16T23:49:38.593Z,72.74
2023-03-16T23:54:40.518Z,73.20
2023-03-16T23:59:42.237Z,73.25
